Time;durP1;ratioP1;P1;durP2;ratioP2;P2;SDS_P1;SDS_P2;PMS_P1;PMS_P2;Temp;Humidity;BMP_temperature;BMP_pressure;BME280_temperature;BME280_humidity;BME280_pressure;Samples;Min_cycle;Max_cycle;Signal;HPM_P1;HPM_P2
2022/07/12 00:00:33;;;;;;;3.53;3.22;;;17.40;75.70;;;;;;5040524;28;20278;-86
2022/07/12 00:03:03;;;;;;;4.25;3.22;;;17.30;77.10;;;;;;5037829;28;20206;-86
2022/07/12 00:05:31;;;;;;;4.80;3.60;;;17.20;77.80;;;;;;5038945;28;20685;-86
2022/07/12 00:08:08;;;;;;;5.25;3.10;;;17.00;78.70;;;;;;5028444;28;20195;-86
2022/07/12 00:10:39;;;;;;;4.25;3.17;;;16.90;78.60;;;;;;5038369;28;20190;-86
2022/07/12 00:13:10;;;;;;;4.45;3.30;;;16.80;80.80;;;;;;5041838;28;20261;-87
2022/07/12 00:15:37;;;;;;;3.95;3.25;;;16.70;81.50;;;;;;5044018;28;20203;-86
2022/07/12 00:18:21;;;;;;;3.85;3.55;;;16.70;81.70;;;;;;5042975;28;20195;-86
2022/07/12 00:21:03;;;;;;;4.32;3.03;;;16.70;83.00;;;;;;5027961;28;20309;-86
2022/07/12 00:23:35;;;;;;;4.32;3.22;;;16.80;82.90;;;;;;5043711;28;20277;-86
2022/07/12 00:26:04;;;;;;;4.70;3.10;;;16.70;83.40;;;;;;5035335;28;20207;-86
2022/07/12 00:28:33;;;;;;;3.97;3.40;;;16.70;84.30;;;;;;5042068;28;20197;-86
2022/07/12 00:31:01;;;;;;;4.65;3.58;;;16.70;85.30;;;;;;5038918;28;20205;-87
2022/07/12 00:33:39;;;;;;;4.25;3.10;;;16.70;86.50;;;;;;5041140;28;20602;-87
2022/07/12 00:36:07;;;;;;;3.33;3.00;;;16.60;85.10;;;;;;5023141;28;20199;-86
2022/07/12 00:38:41;;;;;;;2.90;2.70;;;16.60;85.80;;;;;;5032232;28;20222;-86
2022/07/12 00:41:08;;;;;;;3.40;3.08;;;16.50;85.60;;;;;;5033794;28;20206;-86
2022/07/12 00:44:14;;;;;;;4.40;3.40;;;16.50;86.70;;;;;;5030357;28;20209;-86
2022/07/12 00:46:58;;;;;;;3.30;3.00;;;16.40;86.90;;;;;;5039479;28;20225;-86
2022/07/12 00:49:28;;;;;;;3.45;3.15;;;16.40;87.10;;;;;;5032616;28;20187;-87
2022/07/12 00:51:55;;;;;;;3.30;3.00;;;16.40;87.20;;;;;;5046027;28;20226;-87
2022/07/12 00:54:29;;;;;;;3.65;3.35;;;16.40;87.80;;;;;;5045880;28;20210;-86
2022/07/12 00:57:09;;;;;;;3.97;3.28;;;16.40;88.00;;;;;;5045475;28;20202;-87
2022/07/12 00:59:36;;;;;;;4.60;3.25;;;16.40;88.30;;;;;;5034420;28;20200;-87
2022/07/12 01:02:04;;;;;;;4.07;3.30;;;16.40;88.10;;;;;;5025946;28;20221;-86
2022/07/12 01:05:14;;;;;;;4.60;3.28;;;16.40;88.80;;;;;;5046491;28;20210;-86
2022/07/12 01:07:42;;;;;;;3.47;3.17;;;16.40;89.10;;;;;;5052335;28;20203;-86
2022/07/12 01:10:12;;;;;;;3.55;3.25;;;16.50;88.70;;;;;;5039874;28;20209;-86
2022/07/12 01:12:39;;;;;;;2.88;2.67;;;16.50;88.70;;;;;;5043809;28;20202;-87
2022/07/12 01:15:07;;;;;;;3.40;3.10;;;16.40;89.20;;;;;;5041251;28;20210;-86
2022/07/12 01:17:40;;;;;;;4.45;3.05;;;16.40;89.40;;;;;;5043155;28;20201;-86
2022/07/12 01:20:26;;;;;;;3.20;2.90;;;16.50;88.90;;;;;;5033991;28;20262;-86
2022/07/12 01:22:57;;;;;;;3.30;3.00;;;16.40;88.50;;;;;;5042156;28;20240;-87
2022/07/12 01:25:24;;;;;;;5.90;3.10;;;16.40;89.00;;;;;;5033572;28;20194;-89
2022/07/12 01:28:09;;;;;;;3.63;3.33;;;16.40;89.40;;;;;;5028636;28;20213;-89
2022/07/12 01:30:41;;;;;;;3.50;3.20;;;16.20;89.80;;;;;;5026649;28;20194;-90
2022/07/12 01:33:09;;;;;;;3.53;2.90;;;16.10;90.20;;;;;;5033728;28;20229;-90
2022/07/12 01:36:03;;;;;;;3.47;2.90;;;16.00;90.50;;;;;;5033458;28;20202;-90
2022/07/12 01:38:35;;;;;;;3.30;3.00;;;15.90;90.80;;;;;;5027422;28;20250;-87
2022/07/12 01:41:04;;;;;;;3.65;3.03;;;15.80;91.50;;;;;;5042037;28;20187;-86
2022/07/12 01:43:51;;;;;;;3.55;3.20;;;15.90;91.70;;;;;;5035615;28;20261;-88
2022/07/12 01:46:21;;;;;;;3.28;2.97;;;15.90;91.70;;;;;;5031692;28;20198;-89
2022/07/12 01:49:04;;;;;;;3.30;3.00;;;15.90;91.70;;;;;;5030214;28;20191;-89
2022/07/12 01:51:33;;;;;;;4.18;3.00;;;15.80;91.60;;;;;;5027361;28;20654;-89
2022/07/12 01:54:04;;;;;;;3.00;2.70;;;15.70;91.60;;;;;;5036544;28;20191;-89
2022/07/12 01:56:33;;;;;;;4.53;3.30;;;15.70;91.70;;;;;;5022359;28;20203;-89
2022/07/12 01:59:10;;;;;;;4.50;3.53;;;15.60;92.30;;;;;;5035160;28;20198;-89
2022/07/12 02:01:51;;;;;;;3.47;3.17;;;15.50;92.40;;;;;;5031839;28;20220;-89
2022/07/12 02:04:27;;;;;;;4.10;3.20;;;15.30;92.70;;;;;;5026867;28;20202;-89
2022/07/12 02:06:56;;;;;;;3.55;3.25;;;15.30;93.40;;;;;;5025279;28;20218;-89
2022/07/12 02:09:24;;;;;;;3.40;3.10;;;15.20;93.60;;;;;;5024710;28;20207;-89
2022/07/12 02:11:52;;;;;;;3.85;3.45;;;15.20;94.00;;;;;;5029314;28;20210;-89
2022/07/12 02:14:21;;;;;;;4.20;3.50;;;15.30;94.30;;;;;;5033724;28;20195;-89
2022/07/12 02:16:57;;;;;;;5.10;3.35;;;15.30;94.30;;;;;;5030883;28;20638;-89
2022/07/12 02:19:24;;;;;;;4.70;3.22;;;15.20;94.20;;;;;;5025678;28;20186;-89
2022/07/12 02:21:51;;;;;;;3.67;3.35;;;15.20;94.30;;;;;;5029776;28;20219;-89
2022/07/12 02:24:18;;;;;;;3.78;3.40;;;15.20;94.30;;;;;;5020220;28;20563;-89
2022/07/12 02:27:05;;;;;;;4.75;3.25;;;15.20;94.30;;;;;;5031565;28;20195;-89
2022/07/12 02:29:46;;;;;;;3.78;3.38;;;15.20;94.50;;;;;;5032184;28;20213;-89
2022/07/12 02:32:15;;;;;;;4.07;3.38;;;15.10;94.70;;;;;;5025658;28;20224;-89
2022/07/12 02:34:42;;;;;;;3.97;3.67;;;15.00;94.90;;;;;;5027936;28;20210;-89
2022/07/12 02:37:27;;;;;;;7.68;6.13;;;15.00;94.90;;;;;;5030408;28;20194;-89
2022/07/12 02:43:23;;;;;;;5.30;4.57;;;14.90;95.10;;;;;;5028718;28;20592;-89
2022/07/12 02:45:51;;;;;;;3.42;3.13;;;14.80;95.30;;;;;;5029685;28;20603;-89
2022/07/12 02:48:21;;;;;;;3.78;3.47;;;14.90;95.20;;;;;;5004599;28;20199;-89
2022/07/12 02:50:51;;;;;;;3.85;3.47;;;14.90;95.30;;;;;;5030745;28;20628;-89
2022/07/12 02:53:34;;;;;;;4.03;3.72;;;14.80;95.30;;;;;;5031116;28;20198;-89
2022/07/12 02:56:11;;;;;;;4.93;4.10;;;14.80;95.70;;;;;;5017658;28;20211;-89
2022/07/12 02:58:53;;;;;;;6.13;3.63;;;14.80;95.90;;;;;;5029049;28;20199;-89
2022/07/12 03:01:33;;;;;;;6.70;4.10;;;14.70;96.00;;;;;;5025786;28;20568;-89
2022/07/12 03:04:03;;;;;;;5.25;4.18;;;14.70;96.30;;;;;;5016323;28;20195;-89
2022/07/12 03:06:30;;;;;;;6.20;4.10;;;14.70;96.40;;;;;;5027646;28;20645;-89
2022/07/12 03:08:57;;;;;;;4.78;4.38;;;14.70;96.50;;;;;;5030632;28;20206;-89
2022/07/12 03:11:24;;;;;;;8.48;4.70;;;14.60;96.50;;;;;;5020738;28;20207;-89
2022/07/12 03:13:55;;;;;;;6.05;5.00;;;14.60;96.80;;;;;;5021333;28;20199;-89
2022/07/12 03:16:21;;;;;;;8.07;5.05;;;14.60;96.80;;;;;;5027532;28;20218;-89
2022/07/12 03:18:48;;;;;;;6.85;4.53;;;14.60;96.80;;;;;;5034945;28;20198;-89
2022/07/12 03:21:51;;;;;;;5.38;4.32;;;14.70;96.80;;;;;;5031308;28;20199;-89
2022/07/12 03:24:18;;;;;;;7.20;4.53;;;14.70;96.50;;;;;;5014994;28;20686;-89
2022/07/12 03:26:51;;;;;;;6.63;4.10;;;14.70;96.70;;;;;;5033777;28;20199;-89
2022/07/12 03:29:23;;;;;;;6.07;4.60;;;14.60;96.80;;;;;;5031837;28;20252;-89
2022/07/12 03:32:04;;;;;;;5.95;4.78;;;14.60;96.80;;;;;;5029788;28;20590;-89
2022/07/12 03:34:33;;;;;;;5.18;4.43;;;14.60;96.80;;;;;;5015608;28;20218;-89
2022/07/12 03:37:04;;;;;;;8.57;4.93;;;14.60;96.80;;;;;;5024815;28;20210;-89
2022/07/12 03:39:34;;;;;;;7.18;4.45;;;14.70;96.80;;;;;;5029377;28;20198;-89
2022/07/12 03:42:15;;;;;;;7.53;4.53;;;14.70;96.80;;;;;;5018669;28;20210;-88
2022/07/12 03:44:53;;;;;;;6.70;4.63;;;14.70;96.60;;;;;;5026424;28;20266;-89
2022/07/12 03:47:21;;;;;;;5.13;4.50;;;14.60;96.80;;;;;;5035965;28;20206;-89
2022/07/12 03:49:57;;;;;;;6.43;4.45;;;14.60;96.80;;;;;;5042164;28;20262;-89
2022/07/12 03:52:40;;;;;;;5.65;4.38;;;14.70;96.90;;;;;;5028387;28;20233;-89
2022/07/12 03:55:08;;;;;;;7.50;4.40;;;14.70;96.80;;;;;;5025381;28;20191;-89
2022/07/12 03:58:09;;;;;;;6.45;4.15;;;14.70;96.60;;;;;;5025682;28;20658;-89
2022/07/12 04:00:46;;;;;;;8.43;4.25;;;14.80;96.60;;;;;;5018568;28;20531;-89
2022/07/12 04:03:15;;;;;;;5.88;4.32;;;14.80;96.30;;;;;;5020240;28;20682;-88
2022/07/12 04:05:42;;;;;;;5.25;4.43;;;15.00;96.30;;;;;;5029768;28;20260;-88
2022/07/12 04:08:16;;;;;;;5.65;4.13;;;15.00;96.10;;;;;;5031074;28;20206;-89
2022/07/12 04:10:45;;;;;;;4.53;4.10;;;15.10;96.00;;;;;;5022870;28;20201;-89
2022/07/12 04:13:21;;;;;;;4.68;4.22;;;15.10;95.90;;;;;;5033847;28;20194;-89
2022/07/12 04:15:50;;;;;;;5.80;4.10;;;15.20;95.90;;;;;;5026591;28;20214;-89
2022/07/12 04:18:27;;;;;;;6.65;4.18;;;15.20;95.70;;;;;;5029641;28;20213;-89
2022/07/12 04:21:09;;;;;;;4.30;3.88;;;15.30;95.40;;;;;;5021979;28;20255;-89
2022/07/12 04:23:36;;;;;;;4.40;3.90;;;15.40;95.20;;;;;;5027289;28;20217;-89
2022/07/12 04:26:03;;;;;;;4.93;4.40;;;15.50;94.90;;;;;;5023848;28;20195;-89
2022/07/12 04:28:39;;;;;;;4.38;3.97;;;15.50;94.90;;;;;;5027458;28;20195;-88
2022/07/12 04:31:11;;;;;;;4.30;3.90;;;15.40;95.00;;;;;;5024208;28;20202;-89
2022/07/12 04:33:57;;;;;;;5.13;4.13;;;15.40;95.10;;;;;;5031958;28;20571;-89
2022/07/12 04:36:27;;;;;;;4.88;4.00;;;15.40;95.20;;;;;;5025222;28;20191;-88
2022/07/12 04:39:04;;;;;;;5.82;4.13;;;15.40;95.30;;;;;;5026166;28;20198;-87
2022/07/12 04:41:31;;;;;;;7.35;3.90;;;15.50;95.00;;;;;;5030429;28;20190;-88
2022/07/12 04:44:09;;;;;;;4.78;4.07;;;15.50;95.10;;;;;;5027556;28;20670;-88
2022/07/12 04:46:38;;;;;;;4.35;3.95;;;15.50;95.20;;;;;;5026776;28;20646;-88
2022/07/12 04:49:33;;;;;;;4.50;4.10;;;15.50;95.20;;;;;;5033172;28;20214;-89
2022/07/12 04:52:00;;;;;;;8.20;5.28;;;15.50;95.40;;;;;;5028965;28;20238;-89
2022/07/12 04:54:33;;;;;;;6.28;5.65;;;15.60;95.30;;;;;;5032579;28;20202;-89
2022/07/12 04:57:04;;;;;;;13.10;9.43;;;15.90;94.30;;;;;;5017041;28;20271;-89
2022/07/12 04:59:33;;;;;;;18.40;15.27;;;16.10;93.70;;;;;;5026290;28;20202;-89
2022/07/12 05:02:11;;;;;;;25.80;21.77;;;16.30;93.30;;;;;;5026920;28;20207;-89
2022/07/12 05:08:12;;;;;;;11.95;9.20;;;16.60;91.80;;;;;;5026382;28;20194;-89
2022/07/12 05:10:39;;;;;;;13.00;9.70;;;17.00;91.90;;;;;;5021585;28;20194;-88
2022/07/12 05:13:33;;;;;;;8.30;5.70;;;17.40;90.40;;;;;;5026366;28;20205;-88
2022/07/12 05:16:00;;;;;;;8.98;7.82;;;17.70;86.80;;;;;;5028565;28;20215;-88
2022/07/12 05:18:29;;;;;;;12.80;8.75;;;17.90;83.30;;;;;;5032533;28;20571;-88
2022/07/12 05:21:10;;;;;;;15.05;8.95;;;18.10;79.80;;;;;;5021668;28;20210;-88
2022/07/12 05:23:45;;;;;;;9.98;5.38;;;18.10;80.30;;;;;;5018034;28;20219;-88
2022/07/12 05:26:12;;;;;;;5.50;4.65;;;18.00;80.90;;;;;;5022066;28;20325;-88
2022/07/12 05:28:45;;;;;;;10.98;6.35;;;17.90;80.70;;;;;;5019377;28;20282;-89
2022/07/12 05:31:12;;;;;;;5.47;4.57;;;17.90;80.20;;;;;;5028696;28;20244;-84
2022/07/12 05:33:59;;;;;;;5.15;4.65;;;17.80;79.30;;;;;;5028316;28;20210;-87
2022/07/12 05:36:28;;;;;;;3.58;3.15;;;17.90;79.40;;;;;;5025837;28;20199;-86
2022/07/12 05:39:03;;;;;;;9.48;4.53;;;17.80;79.30;;;;;;5020787;28;20217;-87
2022/07/12 05:41:46;;;;;;;4.68;3.00;;;17.90;78.20;;;;;;5034082;28;20309;-87
2022/07/12 05:44:22;;;;;;;3.60;3.30;;;18.00;76.60;;;;;;5029263;28;20298;-87
2022/07/12 05:46:57;;;;;;;2.65;2.30;;;18.00;75.10;;;;;;5028404;28;20194;-87
2022/07/12 05:49:35;;;;;;;7.13;3.75;;;18.10;75.10;;;;;;5030054;28;20198;-87
2022/07/12 05:54:51;;;;;;;5.78;3.20;;;18.40;70.00;;;;;;5028727;28;20241;-88
2022/07/12 05:57:19;;;;;;;3.88;3.17;;;18.50;69.60;;;;;;5033865;28;20305;-85
2022/07/12 05:59:46;;;;;;;6.35;3.85;;;18.70;68.10;;;;;;5030411;28;20207;-84
2022/07/12 06:02:15;;;;;;;5.07;3.65;;;18.90;66.70;;;;;;5035716;28;20214;-85
2022/07/12 06:04:47;;;;;;;4.60;3.67;;;19.20;65.00;;;;;;5040312;28;20273;-88
2022/07/12 06:07:15;;;;;;;8.38;3.72;;;19.20;63.60;;;;;;5037279;28;20203;-85
2022/07/12 06:09:43;;;;;;;9.27;4.22;;;19.00;68.40;;;;;;5026120;28;20298;-87
2022/07/12 06:12:10;;;;;;;5.22;4.10;;;18.90;66.40;;;;;;5023274;28;21094;-88
2022/07/12 06:14:39;;;;;;;6.88;3.92;;;18.80;66.60;;;;;;5030128;28;20197;-89
2022/07/12 06:17:08;;;;;;;7.18;4.68;;;18.60;68.80;;;;;;5026025;28;20203;-89
2022/07/12 06:19:39;;;;;;;4.47;3.83;;;18.40;68.10;;;;;;5030476;28;20266;-91
2022/07/12 06:22:11;;;;;;;6.50;4.80;;;18.40;69.50;;;;;;5028729;28;20199;-91
2022/07/12 06:24:38;;;;;;;5.93;4.55;;;18.40;69.80;;;;;;5028978;28;20270;-90
2022/07/12 06:27:21;;;;;;;6.50;4.10;;;18.50;70.40;;;;;;5035778;28;20561;-90
2022/07/12 06:30:09;;;;;;;5.38;4.47;;;18.50;70.00;;;;;;5034012;28;20202;-90
2022/07/12 06:32:39;;;;;;;5.13;4.10;;;18.50;70.30;;;;;;5026183;28;20218;-90
2022/07/12 06:35:09;;;;;;;4.05;3.63;;;18.50;70.00;;;;;;5034425;28;20198;-89
2022/07/12 06:37:41;;;;;;;4.82;3.65;;;18.60;68.40;;;;;;5034262;28;20198;-90
2022/07/12 06:40:09;;;;;;;5.20;3.80;;;18.50;69.00;;;;;;5022541;28;20606;-90
2022/07/12 06:42:36;;;;;;;6.28;3.70;;;18.70;68.30;;;;;;5030743;28;20313;-89
2022/07/12 06:45:04;;;;;;;5.28;3.17;;;18.80;66.70;;;;;;5034020;28;20190;-90
2022/07/12 06:47:51;;;;;;;6.95;3.25;;;18.90;68.70;;;;;;5033474;28;20672;-90
2022/07/12 06:50:21;;;;;;;3.85;3.42;;;18.90;68.60;;;;;;5031290;28;20191;-90
2022/07/12 06:52:53;;;;;;;4.35;3.22;;;18.90;65.40;;;;;;5024316;28;20256;-90
2022/07/12 06:55:28;;;;;;;5.38;2.70;;;18.90;66.00;;;;;;5026241;28;20203;-89
2022/07/12 06:57:57;;;;;;;3.70;2.97;;;19.00;65.60;;;;;;5024500;28;20194;-90
2022/07/12 07:00:27;;;;;;;3.13;2.78;;;19.20;66.20;;;;;;5023151;28;20191;-89
2022/07/12 07:03:15;;;;;;;4.53;2.80;;;19.20;62.70;;;;;;5030038;28;20225;-89
2022/07/12 07:05:42;;;;;;;4.40;2.83;;;19.10;62.00;;;;;;5029463;28;20194;-88
2022/07/12 07:08:12;;;;;;;2.90;2.60;;;19.10;61.40;;;;;;5026450;28;20215;-88
2022/07/12 07:11:03;;;;;;;3.67;2.42;;;19.10;61.60;;;;;;5024030;28;20195;-89
2022/07/12 07:13:30;;;;;;;3.53;2.70;;;19.10;61.30;;;;;;5024079;28;20202;-89
2022/07/12 07:16:04;;;;;;;4.00;2.80;;;19.10;60.80;;;;;;5027307;28;20218;-88
2022/07/12 07:18:34;;;;;;;2.67;2.47;;;19.20;59.90;;;;;;5029906;28;20206;-89
2022/07/12 07:21:01;;;;;;;3.47;2.05;;;19.40;60.50;;;;;;5028879;28;20199;-88
2022/07/12 07:23:29;;;;;;;2.75;2.17;;;19.40;58.40;;;;;;5022764;28;20276;-87
2022/07/12 07:25:57;;;;;;;3.75;2.42;;;19.50;57.80;;;;;;5026675;28;20647;-88
2022/07/12 07:28:24;;;;;;;2.83;2.50;;;19.80;55.80;;;;;;5023123;28;20544;-88
2022/07/12 07:31:02;;;;;;;4.88;2.55;;;20.00;55.90;;;;;;5031414;28;20209;-88
2022/07/12 07:33:33;;;;;;;3.58;2.47;;;19.90;55.80;;;;;;5030871;28;20624;-87
2022/07/12 07:36:15;;;;;;;2.90;2.33;;;19.80;55.70;;;;;;5023335;28;20199;-87
2022/07/12 07:38:44;;;;;;;2.80;2.40;;;19.90;53.70;;;;;;5030218;28;20206;-87
2022/07/12 07:41:27;;;;;;;4.97;2.17;;;20.20;51.20;;;;;;5029977;28;20851;-88
2022/07/12 07:43:57;;;;;;;2.55;1.80;;;20.30;50.80;;;;;;5012479;28;20219;-88
2022/07/12 07:46:25;;;;;;;1.70;1.60;;;20.50;50.80;;;;;;5008249;28;20203;-88
2022/07/12 07:48:52;;;;;;;2.03;1.80;;;20.70;48.00;;;;;;5026948;28;20199;-89
2022/07/12 07:51:22;;;;;;;2.38;1.80;;;20.70;48.50;;;;;;5024541;28;20198;-88
2022/07/12 07:53:50;;;;;;;2.22;1.60;;;20.70;46.10;;;;;;5019782;28;20601;-89
2022/07/12 07:56:17;;;;;;;2.25;1.70;;;20.60;46.10;;;;;;5022796;28;20199;-89
2022/07/12 07:58:45;;;;;;;2.05;1.80;;;20.60;49.00;;;;;;5019113;28;20612;-89
2022/07/12 08:01:16;;;;;;;1.60;1.50;;;20.80;46.20;;;;;;5019345;28;20195;-89
2022/07/12 08:03:45;;;;;;;2.22;1.80;;;21.00;46.90;;;;;;5023918;28;20698;-88
2022/07/12 08:06:12;;;;;;;2.60;1.90;;;21.20;41.90;;;;;;5028905;28;20237;-89
2022/07/12 08:08:39;;;;;;;1.90;1.80;;;21.30;39.70;;;;;;5026695;28;20205;-88
2022/07/12 08:11:11;;;;;;;2.42;1.70;;;21.10;39.60;;;;;;5021782;28;20198;-89
2022/07/12 08:13:46;;;;;;;3.88;2.03;;;20.90;41.30;;;;;;5026246;28;20222;-88
2022/07/12 08:16:13;;;;;;;1.75;1.65;;;21.10;40.80;;;;;;5026685;28;20201;-88
2022/07/12 08:18:52;;;;;;;1.65;1.55;;;21.10;38.00;;;;;;5024531;28;20658;-89
2022/07/12 08:21:28;;;;;;;1.85;1.75;;;21.10;37.00;;;;;;5028800;28;20202;-89
2022/07/12 08:24:04;;;;;;;2.53;1.80;;;21.20;34.70;;;;;;5028427;28;20579;-89
2022/07/12 08:26:35;;;;;;;1.60;1.50;;;21.70;33.50;;;;;;5024709;28;20201;-87
2022/07/12 08:29:09;;;;;;;2.80;1.60;;;22.70;31.10;;;;;;5023996;28;20199;-87
2022/07/12 08:32:21;;;;;;;2.10;1.70;;;24.60;25.50;;;;;;5028744;28;20222;-87
2022/07/12 08:35:09;;;;;;;2.03;1.83;;;25.20;21.60;;;;;;5024458;28;20206;-87
2022/07/12 08:37:51;;;;;;;2.75;1.80;;;24.90;23.20;;;;;;5020180;28;20191;-87
2022/07/12 08:40:21;;;;;;;5.30;2.13;;;25.10;23.20;;;;;;5026105;28;20209;-88
2022/07/12 08:43:00;;;;;;;2.92;1.90;;;26.30;20.00;;;;;;5021925;28;20198;-88
2022/07/12 08:45:27;;;;;;;2.28;1.70;;;27.40;17.90;;;;;;5024244;28;20256;-88
2022/07/12 08:47:57;;;;;;;2.17;1.95;;;26.90;17.20;;;;;;5020992;28;20195;-87
2022/07/12 08:50:34;;;;;;;2.13;1.58;;;26.80;19.00;;;;;;5022295;28;20202;-86
2022/07/12 08:53:12;;;;;;;3.42;1.90;;;26.70;17.70;;;;;;5027240;28;20205;-88
2022/07/12 08:55:45;;;;;;;1.85;1.70;;;26.60;18.70;;;;;;5018246;28;20198;-87
2022/07/12 08:58:29;;;;;;;3.13;2.17;;;26.80;19.10;;;;;;5016122;28;20289;-88
2022/07/12 09:01:36;;;;;;;4.15;1.80;;;28.50;15.90;;;;;;5019664;28;20202;-87
2022/07/12 09:04:17;;;;;;;4.28;2.90;;;29.80;13.00;;;;;;5015988;28;20697;-87
2022/07/12 09:06:45;;;;;;;1.95;1.83;;;29.00;13.10;;;;;;5023232;28;20264;-86
2022/07/12 09:09:36;;;;;;;2.08;1.98;;;28.10;13.90;;;;;;5024086;28;20202;-86
2022/07/12 09:12:04;;;;;;;1.65;1.55;;;27.20;15.30;;;;;;5017495;28;20573;-86
2022/07/12 09:14:35;;;;;;;4.47;1.58;;;26.30;15.50;;;;;;5026551;28;20199;-86
2022/07/12 09:17:22;;;;;;;1.70;1.60;;;25.90;15.90;;;;;;5027468;28;20202;-85
2022/07/12 09:19:57;;;;;;;1.50;1.40;;;25.20;18.20;;;;;;5027396;28;20198;-87
2022/07/12 09:22:24;;;;;;;1.80;1.63;;;25.70;15.40;;;;;;5026435;28;20292;-86
2022/07/12 09:24:50;;;;;;;1.90;1.80;;;26.20;15.60;;;;;;5027617;28;20226;-87
2022/07/12 09:27:48;;;;;;;1.98;1.80;;;26.40;14.90;;;;;;5026410;28;20199;-87
2022/07/12 09:30:16;;;;;;;2.55;1.80;;;26.60;14.90;;;;;;5022797;28;20210;-88
2022/07/12 09:36:17;;;;;;;1.92;1.70;;;25.50;18.90;;;;;;5027571;28;20265;-85
2022/07/12 09:38:52;;;;;;;3.70;1.83;;;24.70;19.50;;;;;;5026551;28;20282;-85
2022/07/12 09:41:45;;;;;;;2.42;1.80;;;24.40;20.00;;;;;;5024781;28;20274;-84
2022/07/12 09:44:22;;;;;;;1.63;1.38;;;24.10;20.00;;;;;;5024378;28;20976;-84
2022/07/12 09:47:12;;;;;;;1.90;1.70;;;23.80;22.20;;;;;;5029805;28;20206;-83
2022/07/12 09:49:46;;;;;;;2.38;2.17;;;23.50;23.20;;;;;;5026448;28;20203;-84
2022/07/12 09:52:19;;;;;;;2.20;1.67;;;23.40;23.80;;;;;;5025692;28;20260;-86
2022/07/12 09:54:53;;;;;;;1.95;1.85;;;23.40;25.20;;;;;;5030299;28;20657;-82
2022/07/12 09:57:30;;;;;;;1.98;1.70;;;23.30;23.90;;;;;;5028070;28;20202;-84
2022/07/12 09:59:59;;;;;;;3.83;1.67;;;23.40;23.20;;;;;;5025341;28;20262;-83
2022/07/12 10:02:27;;;;;;;2.55;1.85;;;23.40;23.20;;;;;;5030803;28;20560;-84
2022/07/12 10:04:55;;;;;;;3.17;1.70;;;23.60;23.80;;;;;;5027188;28;20219;-83
2022/07/12 10:07:23;;;;;;;3.28;1.70;;;24.10;22.50;;;;;;5023877;28;20210;-86
2022/07/12 10:09:54;;;;;;;1.70;1.60;;;25.20;20.30;;;;;;5024408;28;20225;-83
2022/07/12 10:12:23;;;;;;;1.83;1.73;;;26.30;17.70;;;;;;5026599;28;20209;-85
2022/07/12 10:14:58;;;;;;;1.75;1.65;;;27.80;17.10;;;;;;5023237;28;20203;-85
2022/07/12 10:17:27;;;;;;;3.25;1.58;;;29.40;15.20;;;;;;5026355;28;20272;-85
2022/07/12 10:20:22;;;;;;;6.90;2.83;;;29.60;13.90;;;;;;5025447;28;20202;-86
2022/07/12 10:22:54;;;;;;;2.88;2.53;;;30.10;14.10;;;;;;5025408;28;20252;-86
2022/07/12 10:25:57;;;;;;;32.38;21.77;;;29.50;12.80;;;;;;5022654;28;20214;-86
2022/07/12 10:29:02;;;;;;;5.90;2.95;;;28.60;15.00;;;;;;5032189;28;20190;-88
2022/07/12 10:31:57;;;;;;;1.92;1.80;;;27.00;16.40;;;;;;5028363;28;20214;-88
2022/07/12 10:34:28;;;;;;;9.82;7.90;;;26.30;17.70;;;;;;5026515;28;20195;-88
2022/07/12 10:37:16;;;;;;;3.72;2.53;;;26.20;19.40;;;;;;5025696;28;20564;-87
2022/07/12 10:40:03;;;;;;;2.58;2.15;;;26.40;18.10;;;;;;5020679;28;20748;-88
2022/07/12 10:44:04;;;;;;;15.15;10.63;;;26.20;18.60;;;;;;5030364;28;20198;-87
2022/07/12 10:59:16;;;;;;;2.00;1.77;;;24.50;20.40;;;;;;5018381;28;20261;-83
2022/07/12 11:01:47;;;;;;;2.33;1.70;;;24.30;21.80;;;;;;5023476;28;20195;-84
2022/07/12 11:04:14;;;;;;;2.17;1.75;;;24.30;21.70;;;;;;5020085;28;20251;-84
2022/07/12 11:06:42;;;;;;;1.50;1.40;;;24.60;20.60;;;;;;5023934;28;20274;-83
2022/07/12 11:09:12;;;;;;;2.28;2.05;;;24.80;19.40;;;;;;5023290;28;20557;-85
2022/07/12 11:11:43;;;;;;;1.60;1.45;;;24.80;20.00;;;;;;5028006;28;20201;-83
2022/07/12 11:14:11;;;;;;;2.42;1.80;;;25.00;20.50;;;;;;5023400;28;20199;-87
2022/07/12 11:16:45;;;;;;;2.28;1.70;;;25.00;19.90;;;;;;5028455;28;20199;-85
2022/07/12 11:19:12;;;;;;;1.90;1.70;;;24.90;19.90;;;;;;5024635;28;20194;-84
2022/07/12 11:21:39;;;;;;;4.10;1.60;;;25.10;18.60;;;;;;5015976;28;20274;-84
2022/07/12 11:24:18;;;;;;;1.50;1.40;;;25.60;18.70;;;;;;5021589;28;20285;-84
2022/07/12 11:26:45;;;;;;;3.67;1.50;;;25.40;18.60;;;;;;5022233;28;20199;-84
2022/07/12 11:29:13;;;;;;;1.63;1.40;;;25.20;19.00;;;;;;5017811;28;20195;-85
2022/07/12 11:31:40;;;;;;;1.73;1.63;;;25.10;19.10;;;;;;5022851;28;20214;-85
2022/07/12 11:34:07;;;;;;;1.60;1.50;;;24.90;19.50;;;;;;5024633;28;20205;-85
2022/07/12 11:36:34;;;;;;;1.67;1.40;;;24.60;19.40;;;;;;5022980;28;20665;-85
2022/07/12 11:39:01;;;;;;;1.83;1.30;;;24.40;20.10;;;;;;5027160;28;20731;-84
2022/07/12 11:41:29;;;;;;;1.55;1.45;;;24.30;21.60;;;;;;5019469;28;20203;-86
2022/07/12 11:43:57;;;;;;;1.15;1.10;;;23.90;21.70;;;;;;5020461;28;20194;-86
2022/07/12 11:46:24;;;;;;;1.70;1.35;;;23.70;21.90;;;;;;5029714;28;20198;-85
2022/07/12 11:48:51;;;;;;;3.90;2.90;;;23.50;21.60;;;;;;5024132;28;20209;-88
2022/07/12 11:51:18;;;;;;;4.63;1.67;;;23.60;22.30;;;;;;5026899;28;20210;-86
2022/07/12 11:53:52;;;;;;;5.32;1.30;;;23.90;22.50;;;;;;5031252;28;20246;-86
2022/07/12 11:56:32;;;;;;;2.08;1.35;;;24.30;19.90;;;;;;5033031;28;20206;-86
2022/07/12 11:58:59;;;;;;;1.45;1.20;;;24.70;20.20;;;;;;5020887;28;20269;-86
2022/07/12 12:01:28;;;;;;;1.33;1.23;;;25.00;21.50;;;;;;5024481;28;20203;-86
2022/07/12 12:03:56;;;;;;;2.80;1.23;;;25.40;18.30;;;;;;5021666;28;20203;-86
2022/07/12 12:06:23;;;;;;;1.50;1.40;;;25.80;17.90;;;;;;5020453;28;20214;-85
2022/07/12 12:08:52;;;;;;;1.63;1.52;;;26.00;18.10;;;;;;5016138;28;20217;-85
2022/07/12 12:11:28;;;;;;;1.83;1.20;;;26.20;14.80;;;;;;5019121;28;20565;-85
2022/07/12 12:14:01;;;;;;;1.83;1.73;;;26.10;17.10;;;;;;5017409;28;20576;-85
2022/07/12 12:16:34;;;;;;;2.00;1.30;;;26.40;15.50;;;;;;5018192;28;20203;-85
2022/07/12 12:19:02;;;;;;;2.47;1.40;;;26.20;16.90;;;;;;5019031;28;20627;-84
2022/07/12 12:21:40;;;;;;;1.83;1.27;;;26.20;17.70;;;;;;5027132;28;20201;-83
2022/07/12 12:24:10;;;;;;;2.85;1.60;;;26.30;18.30;;;;;;5030184;28;20201;-83
2022/07/12 12:26:38;;;;;;;1.88;1.20;;;26.30;18.10;;;;;;5027398;28;20588;-84
2022/07/12 12:29:06;;;;;;;1.33;1.23;;;26.30;16.90;;;;;;5031578;28;20812;-83
2022/07/12 12:31:33;;;;;;;1.90;1.13;;;26.30;17.60;;;;;;5030792;28;20226;-82
2022/07/12 12:34:00;;;;;;;1.27;1.17;;;26.60;16.40;;;;;;5037171;28;20198;-84
2022/07/12 12:36:28;;;;;;;2.67;1.25;;;26.80;17.20;;;;;;5028496;28;20194;-83
2022/07/12 12:38:56;;;;;;;2.50;1.13;;;26.80;15.30;;;;;;5028171;28;20210;-84
2022/07/12 12:41:24;;;;;;;2.30;1.30;;;26.80;15.00;;;;;;5033007;28;20198;-83
2022/07/12 12:44:02;;;;;;;1.40;1.27;;;26.80;15.00;;;;;;5027143;28;20665;-84
2022/07/12 12:46:55;;;;;;;2.00;0.98;;;26.80;15.00;;;;;;5031072;28;20579;-84
2022/07/12 12:49:46;;;;;;;1.67;1.08;;;26.50;14.90;;;;;;5029132;28;20285;-84
2022/07/12 12:52:13;;;;;;;1.20;1.10;;;26.00;16.20;;;;;;5019933;28;20681;-85
2022/07/12 12:54:46;;;;;;;2.63;1.20;;;26.00;17.00;;;;;;5030475;28;20210;-83
2022/07/12 12:57:13;;;;;;;1.15;0.98;;;26.00;14.70;;;;;;5033896;28;20198;-84
2022/07/12 12:59:40;;;;;;;1.52;1.15;;;25.70;15.30;;;;;;5027419;28;20760;-84
2022/07/12 13:02:18;;;;;;;2.63;1.00;;;25.80;18.00;;;;;;5025698;28;20203;-84
2022/07/12 13:04:52;;;;;;;2.90;1.60;;;25.90;16.20;;;;;;5026539;28;20309;-86
2022/07/12 13:07:20;;;;;;;2.97;1.20;;;25.70;16.70;;;;;;5030328;28;20206;-85
2022/07/12 13:09:47;;;;;;;1.23;1.20;;;25.80;17.80;;;;;;5031778;28;20195;-85
2022/07/12 13:12:16;;;;;;;1.38;1.27;;;26.00;16.40;;;;;;5026777;28;20205;-84
2022/07/12 13:14:43;;;;;;;2.95;1.25;;;26.20;17.50;;;;;;5032510;28;20211;-83
2022/07/12 13:17:10;;;;;;;1.20;1.10;;;26.20;16.90;;;;;;5033868;28;20206;-84
2022/07/12 13:19:39;;;;;;;1.60;1.50;;;26.40;14.90;;;;;;5027742;28;20202;-83
2022/07/12 13:22:07;;;;;;;1.33;1.10;;;26.40;15.40;;;;;;5031713;28;20206;-83
2022/07/12 13:24:34;;;;;;;2.17;1.45;;;26.00;14.70;;;;;;5029534;28;20230;-83
2022/07/12 13:27:01;;;;;;;2.80;1.30;;;25.40;15.70;;;;;;5025257;28;20203;-84
2022/07/12 13:29:28;;;;;;;2.60;1.10;;;24.80;17.20;;;;;;5027727;28;20199;-84
2022/07/12 13:31:58;;;;;;;2.55;1.25;;;24.40;18.40;;;;;;5031611;28;20696;-84
2022/07/12 13:34:25;;;;;;;3.67;1.25;;;24.10;19.20;;;;;;5033299;28;20237;-85
2022/07/12 13:36:53;;;;;;;2.70;1.00;;;23.80;18.60;;;;;;5024857;28;20203;-87
2022/07/12 13:42:06;;;;;;;2.42;1.00;;;24.00;18.30;;;;;;5029020;28;20202;-85
2022/07/12 13:44:33;;;;;;;1.17;1.08;;;24.60;18.60;;;;;;5035961;28;20202;-85
2022/07/12 13:46:59;;;;;;;1.92;1.25;;;24.90;18.30;;;;;;5029554;28;20576;-85